Airfield :
LOGIN :

Register | Disclaimer

   EN    FR    IT 

 










Legend :    VFR   Marginal VFR   IFR   Intensive IFR   Very Intensive IFR
Visi :
Ceiling :
>= 8 km
>= 3000ft
5 to 8 km
1000 to 3000 ft
1500m to 5 km
500 to 1000 ft
800 to 1500m
200 to 500 ft
< 800m
< 200 ft
Symbols :   Thunderstorms  Fog  Heavy snow  Heavy precipitations  Wind > 20 kt
SIGMETs :     Misc.  Thunderstorms  Icing  Turbulence  Mountain Waves  Volcanic Ashes






- Airport Elevation : 597 ft
- IATA code : PDV


LBPD - Plovdiv

CURRENT METAR :
  • 211330Z AUTO 10009KT 7000 SCT006 OVC008 12/11 Q1017 NOSIG

EXPIRED METARs :
  • 211300Z AUTO 10007KT 8000 OVC007 12/11 Q1017 NOSIG
  • 211230Z AUTO 09010KT 7000 -SHRA OVC006 12/11 Q1017 NOSIG
  • 211200Z AUTO 09008KT 5000 -RA OVC005 12/11 Q1017 NOSIG
  • 211130Z AUTO 09010KT 4700 -RA BR OVC005 12/11 Q1017 NOSIG
  • 211100Z AUTO 08009KT 5000 -SHRA BR SCT005 OVC007 12/11 Q1017 NOSIG

TAF TAF LBPD
Valid from the 21 at 12:00 until the 22 at 12:00 UTC


211100Z 2112/2212 09010KT 5000 BR SCT007 OVC020
TEMPO 2112/2120 4000 RA BKN006 OVC012
BECMG 2121/2123 3000 RA BKN004 OVC010



MET'MAP, your aeronautical weather chart ! - Copyright ORBIFLY December 2007 - Disclaimer

ORBIFLY MET'MAP TEAM :

Programming & Development : Alexandra Zaïnal
Concept & Development : Baudouin d'Aumeries
Co-Development & Prog : Marc-Olivier Méhu
Technical & hardware support : Manuel Goepfert

Contact : metmap@orbifly.com




SOURCES & CREDITS :

   NOAA